Time;durP1;ratioP1;P1;durP2;ratioP2;P2;SDS_P1;SDS_P2;PMS_P1;PMS_P2;Temp;Humidity;BMP_temperature;BMP_pressure;BME280_temperature;BME280_humidity;BME280_pressure;Samples;Min_cycle;Max_cycle;Signal;HPM_P1;HPM_P2
2024/02/05 00:01:49;;;;;;;4.40;4.10;;;7.60;99.90;;;;;;4958432;28;20233;-76
2024/02/05 00:04:16;;;;;;;4.40;4.10;;;7.80;99.90;;;;;;4960588;28;20203;-77
2024/02/05 00:06:42;;;;;;;4.30;4.00;;;7.90;99.90;;;;;;4959047;28;20286;-77
2024/02/05 00:09:09;;;;;;;4.30;4.00;;;7.90;99.90;;;;;;4958636;28;20236;-76
2024/02/05 00:11:36;;;;;;;4.90;4.50;;;8.10;99.90;;;;;;4962271;28;20286;-76
2024/02/05 00:14:03;;;;;;;4.30;4.00;;;8.10;99.90;;;;;;4969013;28;20238;-75
2024/02/05 00:16:30;;;;;;;4.70;4.30;;;8.10;99.90;;;;;;4981189;28;20305;-75
2024/02/05 00:18:59;;;;;;;4.27;3.97;;;8.20;99.90;;;;;;4952804;28;20615;-74
2024/02/05 00:21:26;;;;;;;4.50;4.20;;;8.30;99.90;;;;;;4951383;28;20278;-74
2024/02/05 00:23:52;;;;;;;4.50;4.20;;;8.30;99.90;;;;;;4968305;28;20329;-74
2024/02/05 00:26:19;;;;;;;4.57;4.27;;;8.50;99.90;;;;;;4974111;28;20301;-74
2024/02/05 00:28:46;;;;;;;4.20;3.90;;;8.60;99.90;;;;;;4968982;28;20262;-75
2024/02/05 00:31:16;;;;;;;3.70;3.40;;;8.70;99.90;;;;;;4954138;28;20297;-75
2024/02/05 00:33:42;;;;;;;3.83;3.60;;;8.80;99.90;;;;;;4952652;28;20235;-76
2024/02/05 00:36:11;;;;;;;4.00;3.70;;;8.90;99.90;;;;;;4969553;28;20313;-76
2024/02/05 00:38:38;;;;;;;3.63;3.33;;;8.90;99.90;;;;;;4965339;28;20213;-77
2024/02/05 00:41:05;;;;;;;3.47;3.17;;;8.90;99.90;;;;;;4961139;28;20206;-76
2024/02/05 00:43:32;;;;;;;3.00;2.80;;;8.90;99.90;;;;;;4969281;28;21073;-75
2024/02/05 00:45:59;;;;;;;2.57;2.47;;;9.00;99.90;;;;;;4967639;28;20309;-74
2024/02/05 00:48:25;;;;;;;2.20;2.10;;;9.00;99.90;;;;;;4957991;28;20305;-75
2024/02/05 00:50:52;;;;;;;2.10;2.00;;;9.20;99.90;;;;;;4968773;28;20698;-75
2024/02/05 00:53:20;;;;;;;2.03;1.93;;;9.20;99.90;;;;;;4953249;28;20227;-75
2024/02/05 00:55:47;;;;;;;1.90;1.80;;;9.20;99.90;;;;;;4949654;28;20750;-75
2024/02/05 00:58:14;;;;;;;1.60;1.50;;;9.30;99.90;;;;;;4949936;28;20765;-75
2024/02/05 01:00:41;;;;;;;1.83;1.73;;;9.30;99.90;;;;;;4949748;28;20749;-75
2024/02/05 01:03:08;;;;;;;1.33;1.33;;;9.30;99.90;;;;;;4950417;28;20647;-75
2024/02/05 01:05:35;;;;;;;1.30;1.30;;;9.40;99.90;;;;;;4949675;28;20211;-74
2024/02/05 01:08:02;;;;;;;1.20;1.20;;;9.40;99.90;;;;;;4949730;28;20239;-74
2024/02/05 01:10:31;;;;;;;1.40;1.30;;;9.40;99.90;;;;;;4959941;28;20210;-73
2024/02/05 01:12:57;;;;;;;1.30;1.30;;;9.60;99.90;;;;;;4949381;28;20544;-74
2024/02/05 01:15:24;;;;;;;1.50;1.50;;;9.60;99.90;;;;;;4949623;28;20513;-74
2024/02/05 01:17:51;;;;;;;1.50;1.50;;;9.60;99.90;;;;;;4949366;28;20385;-75
2024/02/05 01:20:18;;;;;;;1.17;1.17;;;9.70;99.90;;;;;;4959294;28;20245;-75
2024/02/05 01:22:45;;;;;;;1.87;1.77;;;9.70;99.90;;;;;;4968430;28;20326;-76
2024/02/05 01:25:12;;;;;;;1.60;1.50;;;9.60;99.90;;;;;;4956194;28;20215;-76
2024/02/05 01:27:41;;;;;;;1.80;1.70;;;9.60;99.90;;;;;;4965267;28;20298;-75
2024/02/05 01:30:09;;;;;;;1.60;1.50;;;9.80;99.90;;;;;;4968737;28;21030;-76
2024/02/05 01:32:37;;;;;;;1.50;1.50;;;9.80;99.90;;;;;;4950230;28;20239;-75
2024/02/05 01:35:04;;;;;;;1.40;1.30;;;9.80;99.90;;;;;;4949498;28;20211;-76
2024/02/05 01:37:31;;;;;;;1.77;1.67;;;9.70;99.90;;;;;;4951651;28;20207;-76
2024/02/05 01:39:58;;;;;;;1.40;1.40;;;9.80;99.90;;;;;;4961768;28;20310;-73
2024/02/05 01:42:25;;;;;;;1.67;1.57;;;9.80;99.90;;;;;;4959313;28;20336;-73
2024/02/05 01:44:53;;;;;;;1.33;1.33;;;9.90;99.90;;;;;;4968568;28;20214;-73
2024/02/05 01:47:22;;;;;;;1.23;1.20;;;9.80;99.90;;;;;;4968410;28;20716;-73
2024/02/05 01:49:50;;;;;;;1.47;1.43;;;9.90;99.90;;;;;;4968172;28;20214;-74
2024/02/05 01:52:23;;;;;;;1.27;1.27;;;9.80;99.90;;;;;;4968547;28;20238;-74
2024/02/05 01:54:50;;;;;;;1.10;1.10;;;9.90;99.90;;;;;;4967773;28;20300;-74
2024/02/05 01:57:17;;;;;;;1.10;1.10;;;10.10;99.90;;;;;;4953449;28;20753;-74
2024/02/05 01:59:45;;;;;;;1.17;1.17;;;10.10;99.90;;;;;;4967987;28;20217;-74
2024/02/05 02:02:14;;;;;;;1.50;1.40;;;10.20;99.90;;;;;;4960138;28;20199;-74
2024/02/05 02:04:41;;;;;;;1.30;1.30;;;10.10;99.90;;;;;;4948913;28;20683;-74
2024/02/05 02:07:10;;;;;;;1.60;1.50;;;10.20;99.90;;;;;;4950438;28;20207;-74
2024/02/05 02:09:37;;;;;;;1.33;1.33;;;10.10;99.90;;;;;;4952439;28;20210;-74
2024/02/05 02:12:04;;;;;;;1.50;1.40;;;10.20;99.90;;;;;;4951266;28;20214;-74
2024/02/05 02:14:31;;;;;;;1.40;1.40;;;10.00;99.90;;;;;;4957122;28;20231;-74
2024/02/05 02:16:58;;;;;;;1.40;1.30;;;10.10;99.90;;;;;;4961383;28;20234;-74
2024/02/05 02:19:33;;;;;;;1.27;1.27;;;10.10;99.90;;;;;;4967572;28;20211;-74
2024/02/05 02:22:10;;;;;;;1.27;1.10;;;9.90;99.90;;;;;;4949037;28;20319;-75
2024/02/05 02:24:38;;;;;;;1.40;1.30;;;10.10;99.90;;;;;;4965415;28;20653;-75
2024/02/05 02:27:05;;;;;;;1.40;1.40;;;10.10;99.90;;;;;;4967981;28;20302;-75
2024/02/05 02:29:31;;;;;;;2.77;1.43;;;10.10;99.90;;;;;;4963719;28;20797;-76
2024/02/05 02:32:08;;;;;;;1.60;1.50;;;10.10;99.90;;;;;;4948722;28;20618;-77
2024/02/05 02:34:38;;;;;;;1.40;1.40;;;10.10;99.90;;;;;;4949931;28;20310;-76
2024/02/05 02:37:08;;;;;;;1.53;1.20;;;10.30;99.90;;;;;;4951123;28;20788;-76
2024/02/05 02:39:46;;;;;;;1.03;1.03;;;10.10;99.90;;;;;;4955459;28;20666;-74
2024/02/05 02:42:16;;;;;;;1.30;1.20;;;10.20;99.90;;;;;;4971637;28;20211;-74
2024/02/05 02:44:45;;;;;;;1.00;1.00;;;10.20;99.90;;;;;;4963162;28;20279;-74
2024/02/05 02:47:12;;;;;;;1.47;1.37;;;10.20;99.90;;;;;;4968523;28;20250;-74
2024/02/05 02:49:39;;;;;;;1.00;1.00;;;10.10;99.90;;;;;;4971354;28;20345;-74
2024/02/05 02:52:06;;;;;;;0.97;0.97;;;10.20;99.90;;;;;;4971319;28;20293;-76
2024/02/05 02:54:33;;;;;;;0.90;0.90;;;10.20;99.90;;;;;;4968233;28;20227;-75
2024/02/05 02:57:01;;;;;;;1.20;1.17;;;10.20;99.90;;;;;;4956438;28;20217;-75
2024/02/05 02:59:28;;;;;;;0.90;0.90;;;10.20;99.90;;;;;;4951929;28;20686;-76
2024/02/05 03:01:55;;;;;;;1.27;1.27;;;10.10;99.90;;;;;;4965977;28;20626;-75
2024/02/05 03:04:21;;;;;;;1.57;1.00;;;10.10;99.90;;;;;;4970888;28;20670;-75
2024/02/05 03:06:48;;;;;;;1.20;0.90;;;10.10;99.90;;;;;;4957520;28;20682;-75
2024/02/05 03:09:15;;;;;;;1.03;0.93;;;10.10;99.90;;;;;;4956909;28;20682;-75
2024/02/05 03:11:42;;;;;;;0.70;0.70;;;10.10;99.90;;;;;;4959044;28;20207;-76
2024/02/05 03:14:10;;;;;;;1.57;1.03;;;10.20;99.90;;;;;;4959830;28;20242;-76
2024/02/05 03:16:37;;;;;;;0.80;0.80;;;10.20;99.90;;;;;;4970459;28;20231;-73
2024/02/05 03:19:04;;;;;;;0.87;0.87;;;10.20;99.90;;;;;;4951504;28;20290;-75
2024/02/05 03:21:31;;;;;;;1.50;0.97;;;10.10;99.90;;;;;;4951728;28;20207;-74
2024/02/05 03:23:58;;;;;;;1.00;1.00;;;10.10;99.90;;;;;;4962796;28;20246;-74
2024/02/05 03:26:25;;;;;;;1.00;1.00;;;10.10;99.90;;;;;;4962909;28;20239;-74
2024/02/05 03:28:52;;;;;;;1.30;1.30;;;10.20;99.90;;;;;;4950898;28;20291;-74
2024/02/05 03:31:20;;;;;;;1.40;1.30;;;10.20;99.90;;;;;;4949825;28;20704;-74
2024/02/05 03:33:47;;;;;;;1.20;1.10;;;10.20;99.90;;;;;;4954749;28;20239;-74
2024/02/05 03:36:14;;;;;;;1.10;1.00;;;10.20;99.90;;;;;;4955938;28;20294;-74
2024/02/05 03:38:41;;;;;;;1.10;1.00;;;10.20;99.90;;;;;;4949183;28;20635;-74
2024/02/05 03:41:08;;;;;;;1.23;1.13;;;10.10;99.90;;;;;;4966960;28;20297;-74
2024/02/05 03:43:35;;;;;;;1.10;1.10;;;10.10;99.90;;;;;;4968656;28;20645;-74
2024/02/05 03:46:02;;;;;;;1.00;1.00;;;10.10;99.90;;;;;;4949723;28;20302;-74
2024/02/05 03:48:30;;;;;;;1.20;1.07;;;10.30;99.90;;;;;;4947949;28;20214;-74
2024/02/05 03:50:57;;;;;;;0.67;0.67;;;10.10;99.90;;;;;;4948447;28;20742;-74
2024/02/05 03:53:24;;;;;;;0.80;0.80;;;10.10;99.90;;;;;;4954117;28;20227;-74
2024/02/05 03:55:51;;;;;;;0.63;0.63;;;10.10;99.90;;;;;;4959265;28;20211;-74
2024/02/05 03:58:18;;;;;;;0.70;0.70;;;10.30;99.90;;;;;;4963795;28;20242;-74
2024/02/05 04:00:45;;;;;;;0.73;0.73;;;10.30;99.90;;;;;;4962758;28;20222;-74
2024/02/05 04:03:11;;;;;;;0.80;0.80;;;10.20;99.90;;;;;;4959827;28;20242;-75
2024/02/05 04:05:40;;;;;;;0.70;0.70;;;10.10;99.90;;;;;;4965802;28;20261;-75
2024/02/05 04:08:07;;;;;;;0.70;0.70;;;10.10;99.90;;;;;;4957951;28;20303;-74
2024/02/05 04:10:34;;;;;;;0.70;0.70;;;10.10;99.90;;;;;;4952102;28;20238;-74
2024/02/05 04:13:01;;;;;;;0.83;0.70;;;10.20;99.90;;;;;;4968555;28;20226;-74
2024/02/05 04:15:28;;;;;;;1.07;0.70;;;10.20;99.90;;;;;;4968588;28;20230;-74
2024/02/05 04:17:55;;;;;;;0.50;0.50;;;10.10;99.90;;;;;;4968614;28;20218;-74
2024/02/05 04:20:22;;;;;;;1.27;0.70;;;10.20;99.90;;;;;;4969254;28;20321;-74
2024/02/05 04:22:50;;;;;;;0.70;0.70;;;10.20;99.90;;;;;;4968316;28;20872;-74
2024/02/05 04:25:17;;;;;;;0.83;0.70;;;10.20;99.90;;;;;;4969721;28;20241;-75
2024/02/05 04:27:44;;;;;;;0.70;0.70;;;10.20;99.90;;;;;;4969762;28;20298;-74
2024/02/05 04:30:12;;;;;;;0.77;0.60;;;10.20;99.90;;;;;;4969608;28;20306;-75
2024/02/05 04:32:38;;;;;;;0.77;0.57;;;10.20;99.90;;;;;;4969603;28;20294;-74
2024/02/05 04:35:07;;;;;;;0.70;0.70;;;10.30;99.90;;;;;;4969400;28;20230;-74
2024/02/05 04:37:34;;;;;;;0.60;0.60;;;10.20;99.90;;;;;;4968964;28;20221;-74
2024/02/05 04:40:02;;;;;;;1.23;0.80;;;10.20;99.90;;;;;;4969249;28;20258;-74
2024/02/05 04:42:29;;;;;;;0.50;0.50;;;10.20;99.90;;;;;;4969608;28;20288;-74
2024/02/05 04:44:56;;;;;;;1.97;0.90;;;10.20;99.90;;;;;;4969477;28;20269;-74
2024/02/05 04:47:22;;;;;;;0.60;0.60;;;10.30;99.90;;;;;;4969221;28;20764;-74
2024/02/05 04:49:50;;;;;;;0.43;0.43;;;10.20;99.90;;;;;;4968992;28;20305;-75
2024/02/05 04:52:17;;;;;;;0.60;0.60;;;10.20;99.90;;;;;;4968930;28;20665;-74
2024/02/05 04:54:44;;;;;;;0.93;0.80;;;10.30;99.90;;;;;;4951146;28;20239;-75
2024/02/05 04:57:12;;;;;;;1.13;0.70;;;10.20;99.90;;;;;;4949867;29;20314;-74
2024/02/05 04:59:39;;;;;;;1.00;0.90;;;10.20;99.90;;;;;;4949188;28;20782;-74
2024/02/05 05:02:06;;;;;;;0.90;0.90;;;10.20;99.90;;;;;;4949738;28;20701;-74
2024/02/05 05:04:34;;;;;;;1.20;1.00;;;10.20;99.90;;;;;;4953067;28;20253;-74
2024/02/05 05:07:01;;;;;;;1.13;1.03;;;10.20;99.90;;;;;;4968190;28;20736;-74
2024/02/05 05:09:28;;;;;;;1.13;1.03;;;10.20;99.90;;;;;;4969177;28;20330;-74
2024/02/05 05:11:55;;;;;;;0.97;0.80;;;10.20;99.90;;;;;;4968685;28;20295;-75
2024/02/05 05:14:23;;;;;;;0.73;0.73;;;10.20;99.90;;;;;;4968784;28;20239;-74
2024/02/05 05:16:52;;;;;;;0.90;0.90;;;10.20;99.90;;;;;;4968531;28;20749;-75
2024/02/05 05:19:19;;;;;;;0.80;0.80;;;10.20;99.90;;;;;;4969053;28;20298;-74
2024/02/05 05:21:46;;;;;;;0.83;0.63;;;10.20;99.90;;;;;;4968372;28;20258;-74
2024/02/05 05:24:13;;;;;;;1.07;0.70;;;10.10;99.90;;;;;;4955085;28;20215;-75
2024/02/05 05:26:40;;;;;;;0.77;0.70;;;10.20;99.90;;;;;;4948974;29;20306;-74
2024/02/05 05:29:07;;;;;;;0.50;0.50;;;10.20;99.90;;;;;;4949453;28;20560;-74
2024/02/05 05:31:35;;;;;;;0.50;0.50;;;10.20;99.90;;;;;;4949348;29;20223;-74
2024/02/05 05:34:04;;;;;;;0.93;0.53;;;10.20;99.90;;;;;;4949319;28;20852;-74
2024/02/05 05:36:34;;;;;;;0.40;0.40;;;10.10;99.90;;;;;;4948947;29;20686;-74
2024/02/05 05:39:00;;;;;;;1.27;0.33;;;10.20;99.90;;;;;;4949319;28;20203;-74
2024/02/05 05:41:27;;;;;;;0.37;0.37;;;10.10;99.90;;;;;;4949079;28;20303;-75
2024/02/05 05:43:54;;;;;;;0.43;0.43;;;10.10;99.90;;;;;;4949156;29;20222;-74
2024/02/05 05:46:22;;;;;;;0.53;0.40;;;10.10;99.90;;;;;;4948656;29;20215;-74
2024/02/05 05:48:50;;;;;;;0.50;0.50;;;10.10;99.90;;;;;;4949067;28;20207;-74
2024/02/05 05:51:17;;;;;;;1.20;0.50;;;10.10;99.90;;;;;;4949142;29;20310;-75
2024/02/05 05:53:44;;;;;;;1.10;0.50;;;10.10;99.90;;;;;;4958085;28;20270;-74
2024/02/05 05:56:11;;;;;;;0.40;0.40;;;10.10;99.90;;;;;;4967708;28;20290;-74
2024/02/05 05:58:37;;;;;;;0.97;0.70;;;10.10;99.90;;;;;;4967905;28;20297;-74
2024/02/05 06:01:05;;;;;;;0.60;0.60;;;10.10;99.90;;;;;;4967799;28;20673;-74
2024/02/05 06:03:32;;;;;;;1.03;0.60;;;10.20;99.90;;;;;;4968066;28;20211;-74
2024/02/05 06:06:03;;;;;;;0.63;0.63;;;10.10;99.90;;;;;;4966528;28;20211;-74
2024/02/05 06:08:29;;;;;;;0.80;0.80;;;10.10;99.90;;;;;;4967994;28;20669;-75
2024/02/05 06:10:56;;;;;;;0.63;0.63;;;10.10;99.90;;;;;;4968598;28;20230;-74
2024/02/05 06:13:23;;;;;;;0.90;0.83;;;10.10;99.90;;;;;;4972018;28;20313;-74
2024/02/05 06:15:50;;;;;;;1.10;1.00;;;10.10;99.90;;;;;;4971636;28;20317;-74
2024/02/05 06:18:17;;;;;;;1.60;1.10;;;10.10;99.90;;;;;;4971669;28;20294;-74
2024/02/05 06:20:44;;;;;;;1.20;1.20;;;10.00;99.90;;;;;;4971738;28;20206;-74
2024/02/05 06:23:12;;;;;;;0.80;0.80;;;10.10;99.90;;;;;;4971179;28;20362;-75
2024/02/05 06:25:39;;;;;;;0.90;0.90;;;10.10;99.90;;;;;;4971728;28;20290;-75
2024/02/05 06:28:06;;;;;;;1.30;1.20;;;10.10;99.90;;;;;;4972026;28;20573;-74
2024/02/05 06:30:35;;;;;;;1.80;1.40;;;10.10;99.90;;;;;;4971361;28;20310;-74
2024/02/05 06:33:02;;;;;;;1.00;1.00;;;10.10;99.90;;;;;;4971468;28;20203;-73
2024/02/05 06:35:29;;;;;;;1.03;1.03;;;10.10;99.90;;;;;;4971359;28;20618;-73
2024/02/05 06:37:56;;;;;;;0.80;0.80;;;10.10;99.90;;;;;;4971545;28;20289;-74
2024/02/05 06:40:24;;;;;;;1.90;0.97;;;10.10;99.90;;;;;;4971869;28;20318;-74
2024/02/05 06:42:51;;;;;;;0.70;0.60;;;10.20;99.90;;;;;;4971464;28;20297;-73
2024/02/05 06:45:18;;;;;;;1.07;0.80;;;10.20;99.90;;;;;;4971956;28;20211;-75
2024/02/05 06:47:45;;;;;;;0.97;0.97;;;10.20;99.90;;;;;;4971491;28;20302;-74
2024/02/05 06:50:12;;;;;;;0.63;0.63;;;10.20;99.90;;;;;;4971380;28;20301;-74
2024/02/05 06:52:39;;;;;;;0.87;0.73;;;10.10;99.90;;;;;;4970954;28;20298;-73
2024/02/05 06:55:06;;;;;;;0.80;0.80;;;10.10;99.90;;;;;;4971231;28;20231;-75
2024/02/05 06:57:35;;;;;;;0.63;0.40;;;10.20;99.90;;;;;;4963834;28;20221;-73
2024/02/05 07:00:03;;;;;;;0.60;0.60;;;10.10;99.90;;;;;;4959574;28;20310;-73
2024/02/05 07:02:30;;;;;;;0.60;0.60;;;10.20;99.90;;;;;;4971409;28;20207;-73
2024/02/05 07:04:57;;;;;;;0.40;0.40;;;10.20;99.90;;;;;;4971064;28;20305;-73
2024/02/05 07:07:24;;;;;;;0.40;0.40;;;10.10;99.90;;;;;;4971157;28;20211;-74
2024/02/05 07:09:51;;;;;;;0.50;0.50;;;10.20;99.90;;;;;;4971036;28;20306;-74
2024/02/05 07:12:18;;;;;;;0.43;0.43;;;10.20;99.90;;;;;;4970893;28;20261;-74
2024/02/05 07:14:46;;;;;;;0.50;0.50;;;10.20;99.90;;;;;;4970709;28;20656;-74
2024/02/05 07:17:15;;;;;;;0.70;0.70;;;10.20;99.90;;;;;;4970714;28;20305;-74
2024/02/05 07:19:42;;;;;;;1.40;0.60;;;10.20;99.90;;;;;;4970384;28;20218;-74
2024/02/05 07:22:09;;;;;;;0.70;0.70;;;10.20;99.90;;;;;;4970428;28;20330;-74
2024/02/05 07:24:36;;;;;;;0.73;0.70;;;10.30;99.90;;;;;;4954371;28;20298;-73
2024/02/05 07:27:03;;;;;;;1.77;0.90;;;10.20;99.90;;;;;;4951492;29;20556;-73
2024/02/05 07:29:30;;;;;;;1.20;1.10;;;10.20;99.90;;;;;;4951399;28;20472;-74
2024/02/05 07:31:58;;;;;;;1.50;0.87;;;10.20;99.90;;;;;;4950968;28;20359;-73
2024/02/05 07:34:25;;;;;;;1.20;1.10;;;10.20;99.90;;;;;;4950957;29;20267;-74
2024/02/05 07:36:52;;;;;;;1.10;1.00;;;10.30;99.90;;;;;;4950986;29;20302;-74
2024/02/05 07:39:19;;;;;;;1.10;1.00;;;10.20;99.90;;;;;;4950980;28;20326;-74
2024/02/05 07:41:46;;;;;;;3.10;1.47;;;10.30;99.90;;;;;;4950742;29;20714;-74
2024/02/05 07:44:12;;;;;;;1.50;1.40;;;10.20;99.90;;;;;;4950990;29;20258;-74
2024/02/05 07:46:40;;;;;;;1.87;1.40;;;10.30;99.90;;;;;;4951364;29;20629;-73
2024/02/05 07:49:08;;;;;;;2.17;1.63;;;10.30;99.90;;;;;;4959610;28;20670;-73
2024/02/05 07:51:43;;;;;;;1.47;1.37;;;10.30;99.90;;;;;;4970091;28;20211;-73
2024/02/05 07:54:10;;;;;;;1.50;1.30;;;10.30;99.90;;;;;;4980395;28;20214;-74
2024/02/05 07:56:37;;;;;;;2.93;1.90;;;10.30;99.90;;;;;;4986632;28;20297;-74
2024/02/05 07:59:04;;;;;;;3.20;1.93;;;10.30;99.90;;;;;;4989428;28;20210;-74
2024/02/05 08:01:31;;;;;;;2.27;1.80;;;10.20;99.90;;;;;;4989197;28;20300;-74
2024/02/05 08:03:58;;;;;;;2.10;1.90;;;10.20;99.90;;;;;;4988965;28;20272;-73
2024/02/05 08:06:28;;;;;;;1.90;1.80;;;10.20;99.90;;;;;;4989278;28;20273;-74
2024/02/05 08:08:55;;;;;;;2.87;2.17;;;10.20;99.90;;;;;;4989484;28;20282;-74
2024/02/05 08:11:23;;;;;;;2.50;2.30;;;10.20;99.90;;;;;;4989021;28;20301;-74
2024/02/05 08:13:50;;;;;;;3.90;2.10;;;10.20;99.90;;;;;;4989251;28;20213;-74
2024/02/05 08:16:17;;;;;;;4.10;2.67;;;10.20;99.90;;;;;;4988915;28;20328;-74
2024/02/05 08:18:44;;;;;;;4.83;2.70;;;10.20;99.90;;;;;;4978194;28;20310;-74
2024/02/05 08:21:11;;;;;;;3.67;2.50;;;10.20;99.90;;;;;;4969701;28;20314;-74
2024/02/05 08:23:39;;;;;;;6.17;3.00;;;10.20;99.90;;;;;;4960394;28;20370;-74
2024/02/05 08:26:07;;;;;;;2.87;2.67;;;10.20;99.90;;;;;;4950076;29;20249;-74
2024/02/05 08:28:34;;;;;;;3.47;2.30;;;10.30;99.90;;;;;;4950330;28;20247;-73
2024/02/05 08:31:01;;;;;;;3.10;2.80;;;10.20;99.90;;;;;;4950208;29;20207;-73
2024/02/05 08:33:30;;;;;;;3.53;2.40;;;10.20;99.90;;;;;;4949644;28;20215;-74
2024/02/05 08:35:57;;;;;;;7.47;2.93;;;10.20;99.90;;;;;;4949875;29;20242;-73
2024/02/05 08:38:24;;;;;;;6.07;3.03;;;10.20;99.90;;;;;;4964299;28;20207;-74
2024/02/05 08:40:52;;;;;;;5.27;3.10;;;10.20;99.90;;;;;;4988864;28;20205;-74
2024/02/05 08:43:19;;;;;;;5.17;3.30;;;10.20;99.90;;;;;;4988610;28;20660;-74
2024/02/05 08:45:46;;;;;;;5.60;3.37;;;10.20;99.90;;;;;;4976544;28;20625;-74
2024/02/05 08:48:13;;;;;;;4.93;3.10;;;10.20;99.90;;;;;;4969452;28;20214;-74
2024/02/05 08:50:39;;;;;;;5.87;2.80;;;10.20;99.90;;;;;;4969025;28;20301;-74
2024/02/05 08:53:06;;;;;;;5.77;3.63;;;10.20;99.90;;;;;;4968906;28;20217;-74
2024/02/05 08:55:33;;;;;;;5.30;3.70;;;10.20;99.90;;;;;;4969027;28;20235;-73
2024/02/05 08:58:02;;;;;;;8.03;4.13;;;10.20;99.90;;;;;;4969139;28;20393;-74
2024/02/05 09:00:29;;;;;;;6.63;3.53;;;10.20;99.90;;;;;;4969093;28;20298;-74
2024/02/05 09:02:56;;;;;;;5.47;3.60;;;10.20;99.90;;;;;;4968355;28;20305;-74
2024/02/05 09:05:23;;;;;;;5.30;3.43;;;10.20;99.90;;;;;;4969017;28;20289;-74
2024/02/05 09:07:50;;;;;;;5.90;3.73;;;10.20;99.90;;;;;;4968727;28;20210;-74
2024/02/05 09:10:19;;;;;;;5.07;3.13;;;10.20;99.90;;;;;;4968823;28;20293;-74
2024/02/05 09:12:46;;;;;;;7.13;4.10;;;10.20;99.90;;;;;;4968427;28;20246;-74
2024/02/05 09:15:17;;;;;;;7.87;3.70;;;10.20;99.90;;;;;;4968148;28;20681;-74
2024/02/05 09:17:44;;;;;;;8.70;3.70;;;10.20;99.90;;;;;;4968790;28;20198;-74
2024/02/05 09:20:11;;;;;;;7.60;3.70;;;10.20;99.90;;;;;;4968606;28;20207;-73
2024/02/05 09:22:38;;;;;;;6.20;3.43;;;10.10;99.90;;;;;;4967745;28;20310;-74
2024/02/05 09:25:05;;;;;;;6.00;3.97;;;10.10;99.90;;;;;;4948816;28;20223;-73
2024/02/05 09:27:32;;;;;;;8.03;4.03;;;10.20;99.90;;;;;;4949304;28;20219;-73
2024/02/05 09:29:59;;;;;;;7.47;3.73;;;10.20;99.90;;;;;;4948924;29;20773;-73
2024/02/05 09:32:28;;;;;;;7.13;3.67;;;10.20;99.90;;;;;;4948764;29;20658;-74
2024/02/05 09:34:57;;;;;;;7.20;4.27;;;10.30;99.90;;;;;;4949277;29;20265;-74
2024/02/05 09:37:24;;;;;;;10.53;4.20;;;10.30;99.90;;;;;;4949031;28;20294;-74
2024/02/05 09:39:51;;;;;;;9.33;4.23;;;10.30;99.90;;;;;;4949260;29;20239;-74
2024/02/05 09:42:18;;;;;;;6.77;3.90;;;10.30;99.90;;;;;;4963229;28;20206;-74
2024/02/05 09:44:46;;;;;;;7.17;3.53;;;10.30;99.90;;;;;;4967820;28;20217;-74
2024/02/05 09:47:18;;;;;;;4.33;3.23;;;10.40;99.90;;;;;;4967511;28;20207;-73
2024/02/05 09:49:47;;;;;;;8.33;3.93;;;10.40;99.90;;;;;;4967912;28;20218;-73
2024/02/05 09:52:15;;;;;;;8.60;3.60;;;10.40;99.90;;;;;;4967963;28;20246;-73
2024/02/05 09:54:43;;;;;;;9.43;3.30;;;10.40;99.90;;;;;;4951096;28;20219;-73
2024/02/05 09:57:11;;;;;;;9.27;3.37;;;10.50;99.90;;;;;;4948877;28;20239;-74
2024/02/05 09:59:39;;;;;;;8.60;3.23;;;10.40;99.90;;;;;;4949010;28;20293;-74
2024/02/05 10:02:08;;;;;;;7.87;2.93;;;10.50;99.90;;;;;;4949062;28;20380;-74
2024/02/05 10:04:38;;;;;;;7.53;3.30;;;10.40;99.90;;;;;;4949144;28;20211;-74
2024/02/05 10:07:08;;;;;;;5.87;2.67;;;10.40;99.90;;;;;;4948810;28;20227;-73
2024/02/05 10:09:38;;;;;;;6.47;3.07;;;10.50;99.90;;;;;;4948858;28;20196;-74
2024/02/05 10:12:09;;;;;;;7.00;3.07;;;10.50;99.90;;;;;;4966581;28;20214;-74
2024/02/05 10:14:37;;;;;;;9.73;3.47;;;10.50;99.90;;;;;;4967900;28;20326;-74
2024/02/05 10:17:04;;;;;;;4.53;2.77;;;10.50;99.90;;;;;;4967996;28;20277;-75
2024/02/05 10:19:33;;;;;;;4.03;2.83;;;10.50;99.90;;;;;;4967999;28;20247;-75
2024/02/05 10:22:00;;;;;;;4.43;2.40;;;10.50;99.90;;;;;;4967564;28;20238;-75
2024/02/05 10:24:28;;;;;;;5.83;2.80;;;10.50;99.90;;;;;;4952939;28;20299;-75
2024/02/05 10:26:55;;;;;;;5.67;2.43;;;10.50;99.90;;;;;;4948106;29;20310;-75
2024/02/05 10:29:22;;;;;;;6.13;2.70;;;10.50;99.90;;;;;;4948951;29;20207;-75
2024/02/05 10:31:53;;;;;;;3.97;2.47;;;10.60;99.90;;;;;;4948160;29;20753;-75
2024/02/05 10:34:22;;;;;;;6.57;2.67;;;10.50;99.90;;;;;;4948696;29;20201;-75
2024/02/05 10:36:49;;;;;;;3.83;2.30;;;10.60;99.90;;;;;;4948207;28;20235;-75
2024/02/05 10:39:20;;;;;;;8.07;2.90;;;10.60;99.90;;;;;;4967695;28;20246;-75
2024/02/05 10:41:48;;;;;;;4.70;2.77;;;10.60;99.90;;;;;;4967464;28;20211;-75
2024/02/05 10:44:15;;;;;;;6.90;2.43;;;10.60;99.90;;;;;;4967815;28;20288;-75
2024/02/05 10:46:42;;;;;;;8.20;2.83;;;10.60;99.90;;;;;;4967814;28;20207;-75
2024/02/05 10:49:10;;;;;;;6.20;2.53;;;10.50;99.90;;;;;;4967923;28;20218;-75
2024/02/05 10:51:37;;;;;;;6.40;3.13;;;10.50;99.90;;;;;;4967816;28;20297;-75
2024/02/05 10:54:05;;;;;;;9.83;2.90;;;10.40;99.90;;;;;;4955757;28;20222;-75
2024/02/05 10:56:32;;;;;;;8.30;3.10;;;10.40;99.90;;;;;;4948561;28;20330;-75
2024/02/05 10:59:03;;;;;;;5.07;3.13;;;10.40;99.90;;;;;;4952019;28;20294;-75
2024/02/05 11:01:37;;;;;;;9.80;3.70;;;10.40;99.90;;;;;;4952224;28;20294;-75
2024/02/05 11:04:05;;;;;;;7.17;3.13;;;10.40;99.90;;;;;;4952062;28;20196;-75
2024/02/05 11:06:37;;;;;;;10.03;3.50;;;10.30;99.90;;;;;;4954980;28;20214;-75
2024/02/05 11:09:07;;;;;;;9.73;3.83;;;10.30;99.90;;;;;;4971107;28;20294;-75
2024/02/05 11:11:37;;;;;;;10.13;3.07;;;10.30;99.90;;;;;;4971007;28;20870;-75
2024/02/05 11:14:08;;;;;;;7.80;3.00;;;10.30;99.90;;;;;;4971147;28;20269;-75
2024/02/05 11:16:38;;;;;;;10.27;3.07;;;10.30;99.90;;;;;;4971128;28;20237;-75
2024/02/05 11:19:07;;;;;;;9.57;3.23;;;10.30;99.90;;;;;;4970988;28;20207;-75
2024/02/05 11:21:51;;;;;;;7.93;3.30;;;10.30;99.90;;;;;;4970454;28;20606;-75
2024/02/05 11:24:21;;;;;;;9.03;3.73;;;10.40;99.90;;;;;;4957098;28;20212;-75
2024/02/05 11:26:50;;;;;;;9.57;3.53;;;10.30;99.90;;;;;;4951354;28;20251;-75
2024/02/05 11:29:26;;;;;;;6.97;3.07;;;10.40;99.90;;;;;;4951460;28;20602;-75
2024/02/05 11:31:54;;;;;;;7.80;3.30;;;10.40;99.90;;;;;;4951442;28;20199;-75
2024/02/05 11:34:23;;;;;;;8.37;3.00;;;10.40;99.90;;;;;;4961906;28;20211;-75
2024/02/05 11:36:53;;;;;;;8.73;3.20;;;10.40;99.90;;;;;;4970352;28;20235;-75
2024/02/05 11:39:20;;;;;;;8.30;3.37;;;10.40;99.90;;;;;;4970329;28;20210;-75
2024/02/05 11:41:47;;;;;;;11.53;3.83;;;10.40;99.90;;;;;;4970017;28;20446;-75
2024/02/05 11:44:15;;;;;;;9.03;3.00;;;10.50;99.90;;;;;;4970206;28;20242;-74
2024/02/05 11:46:44;;;;;;;5.73;2.80;;;10.50;99.90;;;;;;4969941;28;20246;-75
2024/02/05 11:49:11;;;;;;;7.57;3.20;;;10.50;99.90;;;;;;4970584;28;20203;-75
2024/02/05 11:51:40;;;;;;;7.20;3.10;;;10.50;99.90;;;;;;4970110;28;20213;-75
2024/02/05 11:54:07;;;;;;;5.83;2.63;;;10.40;99.90;;;;;;4957827;28;20271;-74
2024/02/05 11:56:35;;;;;;;7.87;2.60;;;10.40;99.90;;;;;;4950670;28;20705;-75
2024/02/05 11:59:08;;;;;;;10.80;3.33;;;10.30;99.90;;;;;;4951089;29;20215;-76
2024/02/05 12:01:35;;;;;;;11.17;3.53;;;10.30;99.90;;;;;;4951545;29;20235;-75
2024/02/05 12:04:04;;;;;;;11.93;3.40;;;10.30;99.90;;;;;;4950834;28;20299;-75
2024/02/05 12:06:32;;;;;;;7.63;3.27;;;10.30;99.90;;;;;;4950626;29;20690;-74
2024/02/05 12:08:59;;;;;;;9.87;3.20;;;10.30;99.90;;;;;;4949682;28;20246;-75
2024/02/05 12:11:26;;;;;;;7.10;3.40;;;10.30;99.90;;;;;;4950743;29;20302;-74
2024/02/05 12:13:57;;;;;;;11.17;3.33;;;10.30;99.90;;;;;;4950850;28;20322;-75
2024/02/05 12:16:26;;;;;;;9.40;3.80;;;10.20;99.90;;;;;;4950702;28;20235;-75
2024/02/05 12:18:53;;;;;;;8.00;3.37;;;10.20;99.90;;;;;;4950127;29;20313;-75
2024/02/05 12:21:24;;;;;;;9.20;3.23;;;10.20;99.90;;;;;;4950647;28;20217;-75
2024/02/05 12:23:51;;;;;;;5.97;2.70;;;10.20;99.90;;;;;;4960342;28;20285;-75
2024/02/05 12:26:18;;;;;;;6.77;3.40;;;10.20;99.90;;;;;;4969915;28;20247;-75
2024/02/05 12:28:50;;;;;;;10.90;3.70;;;10.30;99.90;;;;;;4969679;28;20302;-75
2024/02/05 12:31:20;;;;;;;9.53;2.83;;;10.30;99.90;;;;;;4969579;28;20199;-75
2024/02/05 12:33:49;;;;;;;6.57;2.63;;;10.30;99.90;;;;;;4969305;28;20205;-75
2024/02/05 12:36:16;;;;;;;6.77;3.57;;;10.30;99.90;;;;;;4969105;28;20724;-75
2024/02/05 12:38:45;;;;;;;9.57;3.53;;;10.40;99.90;;;;;;4968928;28;20303;-75
2024/02/05 12:41:13;;;;;;;11.50;3.90;;;10.40;99.90;;;;;;4969388;28;20745;-75
2024/02/05 12:43:41;;;;;;;7.57;3.20;;;10.40;99.90;;;;;;4969324;28;20242;-75
2024/02/05 12:46:08;;;;;;;8.87;3.23;;;10.40;99.90;;;;;;4969552;28;20432;-74
2024/02/05 12:48:35;;;;;;;8.23;3.57;;;10.40;99.90;;;;;;4969344;28;20748;-75
2024/02/05 12:51:02;;;;;;;9.13;3.57;;;10.40;99.90;;;;;;4969244;28;20302;-75